Cheyenne Regional Jerry Olson Field
KCYS : now visible

Airfield :











YOU CAN JOIN US ON...

 
LOGIN :

Register | Disclaimer

   EN    FR    IT 

 









Legend :    VFR   Marginal VFR   IFR   Intensive IFR   Very Intensive IFR
Visi :
Ceiling :
>= 8 km
>= 3000ft
5 to 8 km
1000 to 3000 ft
1500m to 5 km
500 to 1000 ft
800 to 1500m
200 to 500 ft
< 800m
< 200 ft
Symbols :   Thunderstorms  Fog  Heavy snow  Heavy precipitations  Wind > 20 kt






- Airport Elevation : 6159 ft
- IATA code : CYS


KCYS - Cheyenne Regional Jerry Olson Field

CURRENT METAR :
  • 110553Z AUTO 16008KT 10SM CLR 19/09 A3015 RMK AO2 SLP118 T01940094 10272 20189 51002

EXPIRED METARs :
  • 110453Z AUTO 19010KT 10SM CLR 21/08 A3015 RMK AO2 SLP119 T02110083
  • 110353Z 20008KT 10SM FEW110 22/09 A3015 RMK AO2 PK WND 19029/0310 SLP121 T02220089

TAF KCYS
Valid from the 11 at 06:00 until the 12 at 06:00 UTC


110522Z 1106/1206 19011KT P6SM SCT120
FM110800 24010KT P6SM SKC
FM111500 24010G20KT P6SM SCT100
FM120100 18010KT P6SM SCT100
KZDV FIR / North America



MET'MAP, your aeronautical weather chart ! - Copyright ORBIFLY December 2007 - Disclaimer

ORBIFLY MET'MAP TEAM :

Programming & Development : Alexandra Zaïnal
Concept & original design : Baudouin d'Aumeries
Assistance for programming : Marc-Olivier Méhu
Technical & hardware support : Manuel Goepfert

Contact : metmap@orbifly.com




SOURCES & CREDITS :

   NOAA       Earth
Advisory